sensor_id;sensor_type;location;lat;lon;timestamp;P1;durP1;ratioP1;P2;durP2;ratioP2
8171;SDS011;4127;47.908;10.850;2022-07-29T00:02:14;0.90;;;0.88;;
8171;SDS011;4127;47.908;10.850;2022-07-29T00:04:41;0.70;;;0.70;;
8171;SDS011;4127;47.908;10.850;2022-07-29T00:07:08;1.20;;;0.82;;
8171;SDS011;4127;47.908;10.850;2022-07-29T00:09:36;0.80;;;0.80;;
8171;SDS011;4127;47.908;10.850;2022-07-29T00:12:16;0.80;;;0.80;;
8171;SDS011;4127;47.908;10.850;2022-07-29T00:14:51;0.80;;;0.80;;
8171;SDS011;4127;47.908;10.850;2022-07-29T00:17:22;0.75;;;0.75;;
8171;SDS011;4127;47.908;10.850;2022-07-29T00:19:50;0.75;;;0.75;;
8171;SDS011;4127;47.908;10.850;2022-07-29T00:22:17;0.75;;;0.75;;
8171;SDS011;4127;47.908;10.850;2022-07-29T00:24:44;0.70;;;0.70;;
8171;SDS011;4127;47.908;10.850;2022-07-29T00:27:13;0.90;;;0.90;;
8171;SDS011;4127;47.908;10.850;2022-07-29T00:29:40;0.65;;;0.65;;
8171;SDS011;4127;47.908;10.850;2022-07-29T00:32:07;0.75;;;0.75;;
8171;SDS011;4127;47.908;10.850;2022-07-29T00:34:34;0.80;;;0.80;;
8171;SDS011;4127;47.908;10.850;2022-07-29T00:37:19;0.80;;;0.80;;
8171;SDS011;4127;47.908;10.850;2022-07-29T00:39:46;0.55;;;0.55;;
8171;SDS011;4127;47.908;10.850;2022-07-29T00:42:13;0.70;;;0.70;;
8171;SDS011;4127;47.908;10.850;2022-07-29T00:44:40;0.88;;;0.88;;
8171;SDS011;4127;47.908;10.850;2022-07-29T00:47:08;0.85;;;0.85;;
8171;SDS011;4127;47.908;10.850;2022-07-29T00:49:36;0.70;;;0.70;;
8171;SDS011;4127;47.908;10.850;2022-07-29T00:52:05;0.60;;;0.60;;
8171;SDS011;4127;47.908;10.850;2022-07-29T00:54:33;0.85;;;0.85;;
8171;SDS011;4127;47.908;10.850;2022-07-29T00:57:10;0.73;;;0.73;;
8171;SDS011;4127;47.908;10.850;2022-07-29T00:59:37;0.60;;;0.60;;
8171;SDS011;4127;47.908;10.850;2022-07-29T01:02:04;0.63;;;0.63;;
8171;SDS011;4127;47.908;10.850;2022-07-29T01:04:31;0.70;;;0.70;;
8171;SDS011;4127;47.908;10.850;2022-07-29T01:06:59;0.57;;;0.57;;
8171;SDS011;4127;47.908;10.850;2022-07-29T01:09:27;0.70;;;0.70;;
8171;SDS011;4127;47.908;10.850;2022-07-29T01:12:12;0.70;;;0.70;;
8171;SDS011;4127;47.908;10.850;2022-07-29T01:14:42;0.80;;;0.75;;
8171;SDS011;4127;47.908;10.850;2022-07-29T01:25:48;0.75;;;0.75;;
8171;SDS011;4127;47.908;10.850;2022-07-29T01:34:27;0.60;;;0.60;;
8171;SDS011;4127;47.908;10.850;2022-07-29T01:37:05;0.75;;;0.75;;
8171;SDS011;4127;47.908;10.850;2022-07-29T01:39:51;0.60;;;0.60;;
8171;SDS011;4127;47.908;10.850;2022-07-29T01:42:27;0.70;;;0.70;;
8171;SDS011;4127;47.908;10.850;2022-07-29T01:47:46;0.70;;;0.70;;
8171;SDS011;4127;47.908;10.850;2022-07-29T01:50:19;0.60;;;0.60;;
8171;SDS011;4127;47.908;10.850;2022-07-29T01:52:51;0.60;;;0.60;;
8171;SDS011;4127;47.908;10.850;2022-07-29T01:55:22;0.73;;;0.73;;
8171;SDS011;4127;47.908;10.850;2022-07-29T01:57:53;0.70;;;0.70;;
8171;SDS011;4127;47.908;10.850;2022-07-29T02:00:22;0.70;;;0.70;;
8171;SDS011;4127;47.908;10.850;2022-07-29T02:02:51;0.70;;;0.70;;
8171;SDS011;4127;47.908;10.850;2022-07-29T02:05:21;0.60;;;0.60;;
8171;SDS011;4127;47.908;10.850;2022-07-29T02:07:50;0.75;;;0.75;;
8171;SDS011;4127;47.908;10.850;2022-07-29T02:10:22;0.63;;;0.63;;
8171;SDS011;4127;47.908;10.850;2022-07-29T02:12:52;0.50;;;0.50;;
8171;SDS011;4127;47.908;10.850;2022-07-29T02:15:24;0.70;;;0.70;;
8171;SDS011;4127;47.908;10.850;2022-07-29T02:17:56;0.85;;;0.85;;
8171;SDS011;4127;47.908;10.850;2022-07-29T02:20:27;0.70;;;0.70;;
8171;SDS011;4127;47.908;10.850;2022-07-29T02:22:55;0.60;;;0.60;;
8171;SDS011;4127;47.908;10.850;2022-07-29T02:25:24;0.70;;;0.70;;
8171;SDS011;4127;47.908;10.850;2022-07-29T02:28:02;0.70;;;0.70;;
8171;SDS011;4127;47.908;10.850;2022-07-29T02:30:31;0.60;;;0.60;;
8171;SDS011;4127;47.908;10.850;2022-07-29T02:32:59;0.70;;;0.70;;
8171;SDS011;4127;47.908;10.850;2022-07-29T02:35:26;0.80;;;0.70;;
8171;SDS011;4127;47.908;10.850;2022-07-29T02:38:00;0.65;;;0.65;;
8171;SDS011;4127;47.908;10.850;2022-07-29T02:40:46;0.70;;;0.70;;
8171;SDS011;4127;47.908;10.850;2022-07-29T02:43:14;0.70;;;0.70;;
8171;SDS011;4127;47.908;10.850;2022-07-29T02:45:41;1.02;;;0.82;;
8171;SDS011;4127;47.908;10.850;2022-07-29T02:48:13;0.77;;;0.70;;
8171;SDS011;4127;47.908;10.850;2022-07-29T02:50:44;0.77;;;0.77;;
8171;SDS011;4127;47.908;10.850;2022-07-29T02:53:22;0.65;;;0.65;;
8171;SDS011;4127;47.908;10.850;2022-07-29T02:56:13;0.63;;;0.63;;
8171;SDS011;4127;47.908;10.850;2022-07-29T02:58:45;0.70;;;0.70;;
8171;SDS011;4127;47.908;10.850;2022-07-29T03:01:17;0.60;;;0.60;;
8171;SDS011;4127;47.908;10.850;2022-07-29T03:03:52;0.75;;;0.75;;
8171;SDS011;4127;47.908;10.850;2022-07-29T03:06:23;0.70;;;0.70;;
8171;SDS011;4127;47.908;10.850;2022-07-29T03:09:04;0.70;;;0.70;;
8171;SDS011;4127;47.908;10.850;2022-07-29T03:11:39;0.70;;;0.70;;
8171;SDS011;4127;47.908;10.850;2022-07-29T03:14:17;0.60;;;0.60;;
8171;SDS011;4127;47.908;10.850;2022-07-29T03:16:46;0.70;;;0.70;;
8171;SDS011;4127;47.908;10.850;2022-07-29T03:19:14;0.60;;;0.60;;
8171;SDS011;4127;47.908;10.850;2022-07-29T03:21:42;0.70;;;0.70;;
8171;SDS011;4127;47.908;10.850;2022-07-29T03:24:09;0.70;;;0.70;;
8171;SDS011;4127;47.908;10.850;2022-07-29T03:26:36;0.55;;;0.55;;
8171;SDS011;4127;47.908;10.850;2022-07-29T03:29:03;0.70;;;0.70;;
8171;SDS011;4127;47.908;10.850;2022-07-29T03:31:30;0.70;;;0.70;;
8171;SDS011;4127;47.908;10.850;2022-07-29T03:33:58;0.70;;;0.70;;
8171;SDS011;4127;47.908;10.850;2022-07-29T03:36:25;0.60;;;0.60;;
8171;SDS011;4127;47.908;10.850;2022-07-29T03:38:52;0.73;;;0.73;;
8171;SDS011;4127;47.908;10.850;2022-07-29T03:41:20;0.82;;;0.60;;
8171;SDS011;4127;47.908;10.850;2022-07-29T03:43:50;0.52;;;0.52;;
8171;SDS011;4127;47.908;10.850;2022-07-29T03:46:20;0.50;;;0.50;;
8171;SDS011;4127;47.908;10.850;2022-07-29T03:48:50;0.68;;;0.68;;
8171;SDS011;4127;47.908;10.850;2022-07-29T03:51:22;0.70;;;0.70;;
8171;SDS011;4127;47.908;10.850;2022-07-29T03:53:59;0.70;;;0.70;;
8171;SDS011;4127;47.908;10.850;2022-07-29T03:56:40;0.70;;;0.70;;
8171;SDS011;4127;47.908;10.850;2022-07-29T03:59:12;0.60;;;0.60;;
8171;SDS011;4127;47.908;10.850;2022-07-29T04:01:40;0.70;;;0.70;;
8171;SDS011;4127;47.908;10.850;2022-07-29T04:04:08;0.77;;;0.77;;
8171;SDS011;4127;47.908;10.850;2022-07-29T04:06:38;0.70;;;0.70;;
8171;SDS011;4127;47.908;10.850;2022-07-29T04:09:09;0.70;;;0.70;;
8171;SDS011;4127;47.908;10.850;2022-07-29T04:11:38;0.80;;;0.80;;
8171;SDS011;4127;47.908;10.850;2022-07-29T04:14:26;0.70;;;0.70;;
8171;SDS011;4127;47.908;10.850;2022-07-29T04:16:52;0.60;;;0.60;;
8171;SDS011;4127;47.908;10.850;2022-07-29T04:19:19;0.70;;;0.70;;
8171;SDS011;4127;47.908;10.850;2022-07-29T04:21:46;0.60;;;0.60;;
8171;SDS011;4127;47.908;10.850;2022-07-29T04:24:13;0.60;;;0.60;;
8171;SDS011;4127;47.908;10.850;2022-07-29T04:26:42;0.50;;;0.50;;
8171;SDS011;4127;47.908;10.850;2022-07-29T04:29:09;0.68;;;0.68;;
8171;SDS011;4127;47.908;10.850;2022-07-29T04:31:37;0.82;;;0.82;;
8171;SDS011;4127;47.908;10.850;2022-07-29T04:34:04;0.70;;;0.70;;
8171;SDS011;4127;47.908;10.850;2022-07-29T04:36:31;0.73;;;0.73;;
8171;SDS011;4127;47.908;10.850;2022-07-29T04:38:58;0.75;;;0.75;;
8171;SDS011;4127;47.908;10.850;2022-07-29T04:41:27;0.73;;;0.73;;
8171;SDS011;4127;47.908;10.850;2022-07-29T04:43:58;0.50;;;0.50;;
8171;SDS011;4127;47.908;10.850;2022-07-29T04:46:27;0.80;;;0.80;;
8171;SDS011;4127;47.908;10.850;2022-07-29T04:48:54;0.68;;;0.68;;
8171;SDS011;4127;47.908;10.850;2022-07-29T04:51:21;0.50;;;0.50;;
8171;SDS011;4127;47.908;10.850;2022-07-29T04:53:47;0.70;;;0.70;;
8171;SDS011;4127;47.908;10.850;2022-07-29T04:56:14;0.68;;;0.68;;
8171;SDS011;4127;47.908;10.850;2022-07-29T04:58:41;0.70;;;0.70;;
8171;SDS011;4127;47.908;10.850;2022-07-29T05:01:08;0.60;;;0.60;;
8171;SDS011;4127;47.908;10.850;2022-07-29T05:03:34;0.70;;;0.70;;
8171;SDS011;4127;47.908;10.850;2022-07-29T05:06:01;0.82;;;0.73;;
8171;SDS011;4127;47.908;10.850;2022-07-29T05:08:28;0.68;;;0.65;;
8171;SDS011;4127;47.908;10.850;2022-07-29T05:10:55;0.77;;;0.77;;
8171;SDS011;4127;47.908;10.850;2022-07-29T05:13:22;1.58;;;0.88;;
8171;SDS011;4127;47.908;10.850;2022-07-29T05:15:49;0.73;;;0.73;;
8171;SDS011;4127;47.908;10.850;2022-07-29T05:18:16;1.15;;;0.80;;
8171;SDS011;4127;47.908;10.850;2022-07-29T05:20:42;1.10;;;0.90;;
8171;SDS011;4127;47.908;10.850;2022-07-29T05:23:09;0.80;;;0.80;;
8171;SDS011;4127;47.908;10.850;2022-07-29T05:25:38;0.80;;;0.77;;
8171;SDS011;4127;47.908;10.850;2022-07-29T05:28:09;1.05;;;1.00;;
8171;SDS011;4127;47.908;10.850;2022-07-29T05:30:35;1.30;;;0.70;;
8171;SDS011;4127;47.908;10.850;2022-07-29T05:33:02;0.82;;;0.82;;
8171;SDS011;4127;47.908;10.850;2022-07-29T05:35:29;0.88;;;0.80;;
8171;SDS011;4127;47.908;10.850;2022-07-29T05:37:56;0.80;;;0.80;;
8171;SDS011;4127;47.908;10.850;2022-07-29T05:40:23;1.10;;;1.00;;
8171;SDS011;4127;47.908;10.850;2022-07-29T05:42:49;1.10;;;1.02;;
8171;SDS011;4127;47.908;10.850;2022-07-29T05:45:16;0.98;;;0.98;;
8171;SDS011;4127;47.908;10.850;2022-07-29T05:47:43;0.73;;;0.73;;
8171;SDS011;4127;47.908;10.850;2022-07-29T05:50:10;0.90;;;0.90;;
8171;SDS011;4127;47.908;10.850;2022-07-29T05:52:36;0.80;;;0.80;;
8171;SDS011;4127;47.908;10.850;2022-07-29T05:55:03;1.10;;;1.00;;
8171;SDS011;4127;47.908;10.850;2022-07-29T05:57:31;0.60;;;0.60;;
8171;SDS011;4127;47.908;10.850;2022-07-29T05:59:58;0.93;;;0.93;;
8171;SDS011;4127;47.908;10.850;2022-07-29T06:02:25;0.90;;;0.80;;
8171;SDS011;4127;47.908;10.850;2022-07-29T06:04:52;0.80;;;0.80;;
8171;SDS011;4127;47.908;10.850;2022-07-29T06:07:19;0.80;;;0.80;;
8171;SDS011;4127;47.908;10.850;2022-07-29T06:09:46;0.90;;;0.90;;
8171;SDS011;4127;47.908;10.850;2022-07-29T06:12:13;0.70;;;0.70;;
8171;SDS011;4127;47.908;10.850;2022-07-29T06:14:40;0.80;;;0.80;;
8171;SDS011;4127;47.908;10.850;2022-07-29T06:17:07;0.70;;;0.70;;
8171;SDS011;4127;47.908;10.850;2022-07-29T06:19:34;1.95;;;1.10;;
8171;SDS011;4127;47.908;10.850;2022-07-29T06:22:02;0.95;;;0.88;;
8171;SDS011;4127;47.908;10.850;2022-07-29T06:24:29;0.73;;;0.73;;
8171;SDS011;4127;47.908;10.850;2022-07-29T06:26:56;0.80;;;0.80;;
8171;SDS011;4127;47.908;10.850;2022-07-29T06:29:23;0.88;;;0.82;;
8171;SDS011;4127;47.908;10.850;2022-07-29T06:31:50;0.80;;;0.80;;
8171;SDS011;4127;47.908;10.850;2022-07-29T06:34:17;0.90;;;0.90;;
8171;SDS011;4127;47.908;10.850;2022-07-29T06:36:45;0.80;;;0.80;;
8171;SDS011;4127;47.908;10.850;2022-07-29T06:39:13;1.00;;;1.00;;
8171;SDS011;4127;47.908;10.850;2022-07-29T06:41:40;0.80;;;0.80;;
8171;SDS011;4127;47.908;10.850;2022-07-29T06:44:07;0.90;;;0.90;;
8171;SDS011;4127;47.908;10.850;2022-07-29T06:46:34;0.90;;;0.90;;
8171;SDS011;4127;47.908;10.850;2022-07-29T06:49:01;1.10;;;1.00;;
8171;SDS011;4127;47.908;10.850;2022-07-29T06:51:28;0.70;;;0.70;;
8171;SDS011;4127;47.908;10.850;2022-07-29T06:53:55;0.80;;;0.80;;
8171;SDS011;4127;47.908;10.850;2022-07-29T06:56:32;1.10;;;1.00;;
8171;SDS011;4127;47.908;10.850;2022-07-29T06:59:05;0.93;;;0.93;;
8171;SDS011;4127;47.908;10.850;2022-07-29T07:01:33;0.93;;;0.93;;
8171;SDS011;4127;47.908;10.850;2022-07-29T07:04:02;0.98;;;0.88;;
8171;SDS011;4127;47.908;10.850;2022-07-29T07:06:29;1.20;;;1.10;;
8171;SDS011;4127;47.908;10.850;2022-07-29T07:08:56;1.13;;;1.02;;
8171;SDS011;4127;47.908;10.850;2022-07-29T07:11:22;1.63;;;1.10;;
8171;SDS011;4127;47.908;10.850;2022-07-29T07:13:49;1.65;;;1.00;;
8171;SDS011;4127;47.908;10.850;2022-07-29T07:16:16;1.73;;;1.30;;
8171;SDS011;4127;47.908;10.850;2022-07-29T07:18:43;1.15;;;0.93;;
8171;SDS011;4127;47.908;10.850;2022-07-29T07:21:11;1.33;;;1.13;;
8171;SDS011;4127;47.908;10.850;2022-07-29T07:23:44;2.20;;;1.25;;
8171;SDS011;4127;47.908;10.850;2022-07-29T07:26:11;1.25;;;1.13;;
8171;SDS011;4127;47.908;10.850;2022-07-29T07:28:38;1.17;;;1.08;;
8171;SDS011;4127;47.908;10.850;2022-07-29T07:31:05;1.40;;;1.30;;
8171;SDS011;4127;47.908;10.850;2022-07-29T07:33:32;1.25;;;1.15;;
8171;SDS011;4127;47.908;10.850;2022-07-29T07:35:58;1.20;;;1.20;;
8171;SDS011;4127;47.908;10.850;2022-07-29T07:38:25;1.30;;;1.20;;
8171;SDS011;4127;47.908;10.850;2022-07-29T07:40:52;1.35;;;1.20;;
8171;SDS011;4127;47.908;10.850;2022-07-29T07:43:19;1.45;;;1.23;;
8171;SDS011;4127;47.908;10.850;2022-07-29T07:45:45;1.20;;;1.10;;
8171;SDS011;4127;47.908;10.850;2022-07-29T07:48:12;0.90;;;0.90;;
8171;SDS011;4127;47.908;10.850;2022-07-29T07:50:39;1.30;;;1.20;;
8171;SDS011;4127;47.908;10.850;2022-07-29T07:53:06;1.48;;;1.38;;
8171;SDS011;4127;47.908;10.850;2022-07-29T07:55:33;1.60;;;1.50;;
8171;SDS011;4127;47.908;10.850;2022-07-29T07:58:19;1.30;;;1.20;;
8171;SDS011;4127;47.908;10.850;2022-07-29T08:00:46;1.50;;;1.40;;
8171;SDS011;4127;47.908;10.850;2022-07-29T08:03:13;1.73;;;1.63;;
8171;SDS011;4127;47.908;10.850;2022-07-29T08:05:42;1.58;;;1.48;;
8171;SDS011;4127;47.908;10.850;2022-07-29T08:08:09;1.60;;;1.50;;
8171;SDS011;4127;47.908;10.850;2022-07-29T08:10:36;1.50;;;1.40;;
8171;SDS011;4127;47.908;10.850;2022-07-29T08:13:22;1.50;;;1.38;;
8171;SDS011;4127;47.908;10.850;2022-07-29T08:15:51;1.25;;;1.20;;
8171;SDS011;4127;47.908;10.850;2022-07-29T08:18:24;1.40;;;1.30;;
8171;SDS011;4127;47.908;10.850;2022-07-29T08:20:56;1.60;;;1.50;;
8171;SDS011;4127;47.908;10.850;2022-07-29T08:23:23;1.38;;;1.27;;
8171;SDS011;4127;47.908;10.850;2022-07-29T08:25:50;1.40;;;1.30;;
8171;SDS011;4127;47.908;10.850;2022-07-29T08:28:19;1.27;;;1.17;;
8171;SDS011;4127;47.908;10.850;2022-07-29T08:30:51;1.30;;;1.20;;
8171;SDS011;4127;47.908;10.850;2022-07-29T08:33:17;1.65;;;1.52;;
8171;SDS011;4127;47.908;10.850;2022-07-29T08:35:44;1.80;;;1.70;;
8171;SDS011;4127;47.908;10.850;2022-07-29T08:38:11;1.30;;;1.30;;
8171;SDS011;4127;47.908;10.850;2022-07-29T08:40:38;1.33;;;1.23;;
8171;SDS011;4127;47.908;10.850;2022-07-29T08:43:08;1.50;;;1.40;;
8171;SDS011;4127;47.908;10.850;2022-07-29T08:45:45;1.40;;;1.30;;
8171;SDS011;4127;47.908;10.850;2022-07-29T08:48:14;1.20;;;1.20;;
8171;SDS011;4127;47.908;10.850;2022-07-29T08:50:46;1.67;;;1.40;;
8171;SDS011;4127;47.908;10.850;2022-07-29T08:53:18;1.35;;;1.25;;
8171;SDS011;4127;47.908;10.850;2022-07-29T08:55:46;1.40;;;1.30;;
8171;SDS011;4127;47.908;10.850;2022-07-29T08:58:14;1.30;;;1.20;;
8171;SDS011;4127;47.908;10.850;2022-07-29T09:00:43;1.35;;;1.25;;
8171;SDS011;4127;47.908;10.850;2022-07-29T09:03:15;1.50;;;1.40;;
8171;SDS011;4127;47.908;10.850;2022-07-29T09:05:47;1.67;;;1.58;;
8171;SDS011;4127;47.908;10.850;2022-07-29T09:08:14;1.50;;;1.40;;
8171;SDS011;4127;47.908;10.850;2022-07-29T09:10:43;1.50;;;1.40;;
8171;SDS011;4127;47.908;10.850;2022-07-29T09:13:10;1.63;;;1.52;;
8171;SDS011;4127;47.908;10.850;2022-07-29T09:15:37;1.45;;;1.35;;
8171;SDS011;4127;47.908;10.850;2022-07-29T09:18:04;1.70;;;1.60;;
8171;SDS011;4127;47.908;10.850;2022-07-29T09:20:30;1.50;;;1.40;;
8171;SDS011;4127;47.908;10.850;2022-07-29T09:23:16;1.60;;;1.50;;
8171;SDS011;4127;47.908;10.850;2022-07-29T09:25:49;1.50;;;1.40;;
8171;SDS011;4127;47.908;10.850;2022-07-29T09:28:16;1.48;;;1.38;;
8171;SDS011;4127;47.908;10.850;2022-07-29T09:31:17;1.45;;;1.35;;
8171;SDS011;4127;47.908;10.850;2022-07-29T09:33:37;1.60;;;1.50;;
8171;SDS011;4127;47.908;10.850;2022-07-29T09:36:07;1.58;;;1.48;;
8171;SDS011;4127;47.908;10.850;2022-07-29T09:38:35;1.30;;;1.20;;
8171;SDS011;4127;47.908;10.850;2022-07-29T09:41:05;1.67;;;1.58;;
8171;SDS011;4127;47.908;10.850;2022-07-29T09:43:34;1.75;;;1.65;;
8171;SDS011;4127;47.908;10.850;2022-07-29T09:46:11;1.83;;;1.73;;
8171;SDS011;4127;47.908;10.850;2022-07-29T09:48:38;1.70;;;1.60;;
8171;SDS011;4127;47.908;10.850;2022-07-29T09:51:15;1.70;;;1.60;;
8171;SDS011;4127;47.908;10.850;2022-07-29T09:53:53;1.60;;;1.50;;
8171;SDS011;4127;47.908;10.850;2022-07-29T09:56:20;1.80;;;1.70;;
8171;SDS011;4127;47.908;10.850;2022-07-29T09:59:08;1.70;;;1.60;;
8171;SDS011;4127;47.908;10.850;2022-07-29T10:01:37;1.90;;;1.80;;
8171;SDS011;4127;47.908;10.850;2022-07-29T10:04:04;1.55;;;1.45;;
8171;SDS011;4127;47.908;10.850;2022-07-29T10:06:31;1.60;;;1.50;;
8171;SDS011;4127;47.908;10.850;2022-07-29T10:09:10;1.20;;;1.20;;
8171;SDS011;4127;47.908;10.850;2022-07-29T10:11:37;1.30;;;1.20;;
8171;SDS011;4127;47.908;10.850;2022-07-29T10:14:15;1.63;;;1.30;;
8171;SDS011;4127;47.908;10.850;2022-07-29T10:16:42;1.60;;;1.50;;
8171;SDS011;4127;47.908;10.850;2022-07-29T10:19:09;1.02;;;1.00;;
8171;SDS011;4127;47.908;10.850;2022-07-29T10:21:36;1.30;;;1.20;;
8171;SDS011;4127;47.908;10.850;2022-07-29T10:24:05;1.30;;;1.20;;
8171;SDS011;4127;47.908;10.850;2022-07-29T10:26:40;1.30;;;1.20;;
8171;SDS011;4127;47.908;10.850;2022-07-29T10:29:07;1.60;;;1.50;;
8171;SDS011;4127;47.908;10.850;2022-07-29T10:31:40;1.50;;;1.40;;
8171;SDS011;4127;47.908;10.850;2022-07-29T10:42:25;1.58;;;1.30;;
8171;SDS011;4127;47.908;10.850;2022-07-29T10:44:59;1.35;;;1.25;;
8171;SDS011;4127;47.908;10.850;2022-07-29T10:47:27;1.30;;;1.20;;
8171;SDS011;4127;47.908;10.850;2022-07-29T10:49:57;1.40;;;1.30;;
8171;SDS011;4127;47.908;10.850;2022-07-29T10:55:35;1.48;;;1.38;;
8171;SDS011;4127;47.908;10.850;2022-07-29T10:58:12;1.55;;;1.40;;
8171;SDS011;4127;47.908;10.850;2022-07-29T11:00:48;1.30;;;1.20;;
8171;SDS011;4127;47.908;10.850;2022-07-29T11:06:16;1.08;;;1.08;;
8171;SDS011;4127;47.908;10.850;2022-07-29T11:09:38;1.42;;;1.33;;
8171;SDS011;4127;47.908;10.850;2022-07-29T11:11:45;1.10;;;1.10;;
8171;SDS011;4127;47.908;10.850;2022-07-29T11:14:17;1.35;;;1.25;;
8171;SDS011;4127;47.908;10.850;2022-07-29T11:16:58;2.17;;;1.30;;
8171;SDS011;4127;47.908;10.850;2022-07-29T11:19:31;1.20;;;1.10;;
8171;SDS011;4127;47.908;10.850;2022-07-29T11:21:59;1.30;;;1.20;;
8171;SDS011;4127;47.908;10.850;2022-07-29T11:24:28;1.30;;;1.20;;
8171;SDS011;4127;47.908;10.850;2022-07-29T11:27:14;1.40;;;1.30;;
8171;SDS011;4127;47.908;10.850;2022-07-29T11:32:16;1.25;;;1.15;;
8171;SDS011;4127;47.908;10.850;2022-07-29T11:34:49;1.00;;;1.00;;
8171;SDS011;4127;47.908;10.850;2022-07-29T11:37:43;1.10;;;1.10;;
8171;SDS011;4127;47.908;10.850;2022-07-29T11:40:21;1.38;;;1.27;;
8171;SDS011;4127;47.908;10.850;2022-07-29T11:42:48;1.30;;;1.20;;
8171;SDS011;4127;47.908;10.850;2022-07-29T11:45:18;1.10;;;1.10;;
8171;SDS011;4127;47.908;10.850;2022-07-29T11:48:06;1.10;;;1.10;;
8171;SDS011;4127;47.908;10.850;2022-07-29T11:50:57;1.15;;;1.10;;
8171;SDS011;4127;47.908;10.850;2022-07-29T11:53:25;1.50;;;1.40;;
8171;SDS011;4127;47.908;10.850;2022-07-29T11:55:57;1.10;;;1.10;;
8171;SDS011;4127;47.908;10.850;2022-07-29T11:58:25;1.35;;;1.25;;
8171;SDS011;4127;47.908;10.850;2022-07-29T12:00:53;1.10;;;1.10;;
8171;SDS011;4127;47.908;10.850;2022-07-29T12:03:25;1.15;;;1.10;;
8171;SDS011;4127;47.908;10.850;2022-07-29T12:06:02;1.30;;;1.20;;
8171;SDS011;4127;47.908;10.850;2022-07-29T12:08:41;1.30;;;1.20;;
8171;SDS011;4127;47.908;10.850;2022-07-29T12:11:18;1.00;;;1.00;;
8171;SDS011;4127;47.908;10.850;2022-07-29T12:13:49;1.00;;;1.00;;
8171;SDS011;4127;47.908;10.850;2022-07-29T12:16:17;1.27;;;1.17;;
8171;SDS011;4127;47.908;10.850;2022-07-29T12:19:01;1.00;;;1.00;;
8171;SDS011;4127;47.908;10.850;2022-07-29T12:21:45;1.30;;;1.20;;
8171;SDS011;4127;47.908;10.850;2022-07-29T12:24:21;1.30;;;1.20;;
8171;SDS011;4127;47.908;10.850;2022-07-29T12:26:56;1.10;;;1.10;;
8171;SDS011;4127;47.908;10.850;2022-07-29T12:29:24;0.95;;;0.90;;
8171;SDS011;4127;47.908;10.850;2022-07-29T12:32:00;1.00;;;0.90;;
8171;SDS011;4127;47.908;10.850;2022-07-29T12:34:29;1.10;;;1.10;;
8171;SDS011;4127;47.908;10.850;2022-07-29T12:36:56;1.20;;;1.20;;
8171;SDS011;4127;47.908;10.850;2022-07-29T12:39:24;1.00;;;1.00;;
8171;SDS011;4127;47.908;10.850;2022-07-29T12:41:53;0.88;;;0.88;;
8171;SDS011;4127;47.908;10.850;2022-07-29T12:44:51;1.10;;;1.00;;
8171;SDS011;4127;47.908;10.850;2022-07-29T12:47:17;1.02;;;1.02;;
8171;SDS011;4127;47.908;10.850;2022-07-29T12:49:46;1.00;;;1.00;;
8171;SDS011;4127;47.908;10.850;2022-07-29T12:52:23;1.20;;;1.10;;
8171;SDS011;4127;47.908;10.850;2022-07-29T12:54:51;0.93;;;0.93;;
8171;SDS011;4127;47.908;10.850;2022-07-29T12:57:18;1.20;;;1.10;;
8171;SDS011;4127;47.908;10.850;2022-07-29T12:59:49;1.30;;;1.20;;
8171;SDS011;4127;47.908;10.850;2022-07-29T13:02:36;1.17;;;1.17;;
8171;SDS011;4127;47.908;10.850;2022-07-29T13:05:04;1.00;;;1.00;;
8171;SDS011;4127;47.908;10.850;2022-07-29T13:07:32;1.00;;;1.00;;
8171;SDS011;4127;47.908;10.850;2022-07-29T13:10:22;1.00;;;1.00;;
8171;SDS011;4127;47.908;10.850;2022-07-29T13:13:09;1.05;;;1.05;;
8171;SDS011;4127;47.908;10.850;2022-07-29T13:15:38;1.08;;;1.08;;
8171;SDS011;4127;47.908;10.850;2022-07-29T13:18:25;0.90;;;0.90;;
8171;SDS011;4127;47.908;10.850;2022-07-29T13:21:09;0.93;;;0.93;;
8171;SDS011;4127;47.908;10.850;2022-07-29T13:23:38;1.10;;;1.10;;
8171;SDS011;4127;47.908;10.850;2022-07-29T13:26:05;1.08;;;0.98;;
8171;SDS011;4127;47.908;10.850;2022-07-29T13:28:33;1.00;;;1.00;;
8171;SDS011;4127;47.908;10.850;2022-07-29T13:31:00;0.98;;;0.98;;
8171;SDS011;4127;47.908;10.850;2022-07-29T13:33:27;0.95;;;0.95;;
8171;SDS011;4127;47.908;10.850;2022-07-29T13:35:54;1.08;;;1.08;;
8171;SDS011;4127;47.908;10.850;2022-07-29T13:38:21;1.05;;;1.05;;
8171;SDS011;4127;47.908;10.850;2022-07-29T13:40:56;1.35;;;1.30;;
8171;SDS011;4127;47.908;10.850;2022-07-29T13:43:23;1.05;;;1.02;;
8171;SDS011;4127;47.908;10.850;2022-07-29T13:45:50;1.10;;;1.10;;
8171;SDS011;4127;47.908;10.850;2022-07-29T13:48:16;1.08;;;1.08;;
8171;SDS011;4127;47.908;10.850;2022-07-29T13:50:43;1.00;;;1.00;;
8171;SDS011;4127;47.908;10.850;2022-07-29T13:53:11;1.02;;;1.02;;
8171;SDS011;4127;47.908;10.850;2022-07-29T13:55:43;0.93;;;0.93;;
8171;SDS011;4127;47.908;10.850;2022-07-29T13:58:10;1.13;;;1.10;;
8171;SDS011;4127;47.908;10.850;2022-07-29T14:00:36;0.90;;;0.90;;
8171;SDS011;4127;47.908;10.850;2022-07-29T14:03:03;1.05;;;1.05;;
8171;SDS011;4127;47.908;10.850;2022-07-29T14:05:30;0.90;;;0.90;;
8171;SDS011;4127;47.908;10.850;2022-07-29T14:07:57;1.10;;;1.10;;
8171;SDS011;4127;47.908;10.850;2022-07-29T14:10:23;1.20;;;1.10;;
8171;SDS011;4127;47.908;10.850;2022-07-29T14:12:50;1.00;;;1.00;;
8171;SDS011;4127;47.908;10.850;2022-07-29T14:15:17;1.00;;;1.00;;
8171;SDS011;4127;47.908;10.850;2022-07-29T14:17:44;1.23;;;1.10;;
8171;SDS011;4127;47.908;10.850;2022-07-29T14:20:11;1.27;;;1.20;;
8171;SDS011;4127;47.908;10.850;2022-07-29T14:22:38;1.00;;;1.00;;
8171;SDS011;4127;47.908;10.850;2022-07-29T14:25:10;0.90;;;0.90;;
8171;SDS011;4127;47.908;10.850;2022-07-29T14:27:40;1.10;;;1.00;;
8171;SDS011;4127;47.908;10.850;2022-07-29T14:30:11;1.00;;;1.00;;
8171;SDS011;4127;47.908;10.850;2022-07-29T14:32:38;1.02;;;0.98;;
8171;SDS011;4127;47.908;10.850;2022-07-29T14:35:05;1.00;;;1.00;;
8171;SDS011;4127;47.908;10.850;2022-07-29T14:37:32;1.02;;;0.93;;
8171;SDS011;4127;47.908;10.850;2022-07-29T14:40:06;0.98;;;0.98;;
8171;SDS011;4127;47.908;10.850;2022-07-29T14:42:34;0.82;;;0.82;;
8171;SDS011;4127;47.908;10.850;2022-07-29T14:45:02;1.10;;;1.10;;
8171;SDS011;4127;47.908;10.850;2022-07-29T14:47:33;1.00;;;1.00;;
8171;SDS011;4127;47.908;10.850;2022-07-29T14:50:00;0.93;;;0.93;;
8171;SDS011;4127;47.908;10.850;2022-07-29T14:52:28;1.20;;;1.10;;
8171;SDS011;4127;47.908;10.850;2022-07-29T14:54:55;1.00;;;1.00;;
8171;SDS011;4127;47.908;10.850;2022-07-29T14:57:21;1.00;;;1.00;;
8171;SDS011;4127;47.908;10.850;2022-07-29T14:59:48;1.00;;;1.00;;
8171;SDS011;4127;47.908;10.850;2022-07-29T15:02:15;1.08;;;0.98;;
8171;SDS011;4127;47.908;10.850;2022-07-29T15:04:45;1.13;;;1.10;;
8171;SDS011;4127;47.908;10.850;2022-07-29T15:07:14;0.98;;;0.98;;
8171;SDS011;4127;47.908;10.850;2022-07-29T15:09:42;0.88;;;0.88;;
8171;SDS011;4127;47.908;10.850;2022-07-29T15:12:15;0.80;;;0.80;;
8171;SDS011;4127;47.908;10.850;2022-07-29T15:14:42;1.20;;;1.10;;
8171;SDS011;4127;47.908;10.850;2022-07-29T15:17:09;0.80;;;0.80;;
8171;SDS011;4127;47.908;10.850;2022-07-29T15:19:36;0.80;;;0.80;;
8171;SDS011;4127;47.908;10.850;2022-07-29T15:22:03;0.82;;;0.82;;
8171;SDS011;4127;47.908;10.850;2022-07-29T15:24:31;1.10;;;1.10;;
8171;SDS011;4127;47.908;10.850;2022-07-29T15:26:58;1.00;;;1.00;;
8171;SDS011;4127;47.908;10.850;2022-07-29T15:29:25;1.00;;;1.00;;
8171;SDS011;4127;47.908;10.850;2022-07-29T15:31:51;1.10;;;1.10;;
8171;SDS011;4127;47.908;10.850;2022-07-29T15:34:18;1.30;;;1.20;;
8171;SDS011;4127;47.908;10.850;2022-07-29T15:36:46;1.00;;;1.00;;
8171;SDS011;4127;47.908;10.850;2022-07-29T15:39:19;0.98;;;0.98;;
8171;SDS011;4127;47.908;10.850;2022-07-29T15:41:46;0.90;;;0.90;;
8171;SDS011;4127;47.908;10.850;2022-07-29T15:44:13;1.08;;;1.08;;
8171;SDS011;4127;47.908;10.850;2022-07-29T15:46:40;1.00;;;1.00;;
8171;SDS011;4127;47.908;10.850;2022-07-29T15:49:26;0.90;;;0.90;;
8171;SDS011;4127;47.908;10.850;2022-07-29T15:52:14;1.00;;;1.00;;
8171;SDS011;4127;47.908;10.850;2022-07-29T15:54:42;1.10;;;1.10;;